Time;durP1;ratioP1;P1;durP2;ratioP2;P2;SDS_P1;SDS_P2;PMS_P1;PMS_P2;Temp;Humidity;BMP_temperature;BMP_pressure;BME280_temperature;BME280_humidity;BME280_pressure;Samples;Min_cycle;Max_cycle;Signal;HPM_P1;HPM_P2
2022/02/14 00:00:08;;;;;;;;;;;0.40;99.90;;;;;;4995216;28;19925;-79
2022/02/14 00:02:38;;;;;;;;;;;0.40;99.90;;;;;;4991228;28;20385;-79
2022/02/14 00:05:04;;;;;;;;;;;0.40;99.90;;;;;;4996294;28;19913;-79
2022/02/14 00:07:30;;;;;;;;;;;0.40;99.90;;;;;;4994549;28;19924;-79
2022/02/14 00:09:56;;;;;;;;;;;0.40;99.90;;;;;;4995214;28;20384;-78
2022/02/14 00:12:21;;;;;;;;;;;0.40;99.90;;;;;;4995413;28;19976;-78
2022/02/14 00:14:47;;;;;;;;;;;0.30;99.90;;;;;;4990803;28;19933;-78
2022/02/14 00:17:12;;;;;;;;;;;0.30;99.90;;;;;;4997176;28;19930;-78
2022/02/14 00:19:38;;;;;;;;;;;0.30;99.90;;;;;;4993873;28;19930;-78
2022/02/14 00:22:03;;;;;;;;;;;0.30;99.90;;;;;;4994697;28;20609;-78
2022/02/14 00:24:29;;;;;;;;;;;0.30;99.90;;;;;;4993332;28;19965;-77
2022/02/14 00:26:55;;;;;;;;;;;0.30;99.90;;;;;;4994188;28;20324;-78
2022/02/14 00:29:21;;;;;;;;;;;0.40;99.90;;;;;;4992472;28;19917;-78
2022/02/14 00:31:47;;;;;;;;;;;0.40;99.90;;;;;;4992828;28;19925;-79
2022/02/14 00:34:13;;;;;;;;;;;0.30;99.90;;;;;;4993211;28;19914;-79
2022/02/14 00:36:39;;;;;;;;;;;0.30;99.90;;;;;;4983019;28;19981;-78
2022/02/14 00:39:04;;;;;;;;;;;0.30;99.90;;;;;;4994081;28;20585;-78
2022/02/14 00:41:30;;;;;;;;;;;0.30;99.90;;;;;;5008617;28;19914;-78
2022/02/14 00:43:56;;;;;;;;;;;0.20;99.90;;;;;;4994523;28;19941;-78
2022/02/14 00:46:21;;;;;;;;;;;0.30;99.90;;;;;;4994000;28;19969;-78
2022/02/14 00:48:47;;;;;;;;;;;0.20;99.90;;;;;;5009337;28;19953;-78
2022/02/14 00:51:12;;;;;;;;;;;0.20;99.90;;;;;;4992665;28;19925;-78
2022/02/14 00:53:38;;;;;;;;;;;0.20;99.90;;;;;;4993253;28;19940;-78
2022/02/14 00:56:04;;;;;;;;;;;0.20;99.90;;;;;;4993653;28;19921;-78
2022/02/14 00:58:30;;;;;;;;;;;0.10;99.90;;;;;;4993053;28;19925;-78
2022/02/14 01:00:56;;;;;;;;;;;0.10;99.90;;;;;;4994277;28;20303;-78
2022/02/14 01:03:21;;;;;;;;;;;0.10;99.90;;;;;;4994262;28;19913;-78
2022/02/14 01:05:48;;;;;;;;;;;0.10;99.90;;;;;;4992341;28;19918;-78
2022/02/14 01:08:13;;;;;;;;;;;0.10;99.90;;;;;;5009167;28;20291;-78
2022/02/14 01:10:39;;;;;;;;;;;0.10;99.90;;;;;;4993853;28;19922;-78
2022/02/14 01:13:04;;;;;;;;;;;0.10;99.90;;;;;;4994009;28;19960;-78
2022/02/14 01:15:30;;;;;;;;;;;0.10;99.90;;;;;;4992009;28;19918;-78
2022/02/14 01:17:56;;;;;;;;;;;0.00;99.90;;;;;;4992992;28;19917;-78
2022/02/14 01:20:21;;;;;;;;;;;0.10;99.90;;;;;;4993345;28;19968;-78
2022/02/14 01:22:47;;;;;;;;;;;0.10;99.90;;;;;;4993328;28;20284;-78
2022/02/14 01:25:13;;;;;;;;;;;0.20;99.90;;;;;;4993261;28;19948;-78
2022/02/14 01:27:39;;;;;;;;;;;0.20;99.90;;;;;;4991859;28;19921;-78
2022/02/14 01:30:06;;;;;;;;;;;0.30;99.90;;;;;;4992525;28;19945;-78
2022/02/14 01:32:32;;;;;;;;;;;0.40;99.90;;;;;;4978078;28;19925;-78
2022/02/14 01:34:57;;;;;;;;;;;0.40;99.90;;;;;;4992146;28;19910;-78
2022/02/14 01:37:23;;;;;;;;;;;0.40;99.90;;;;;;4992152;28;19918;-78
2022/02/14 01:39:49;;;;;;;;;;;0.30;99.90;;;;;;4992925;28;19922;-79
2022/02/14 01:42:15;;;;;;;;;;;0.20;99.90;;;;;;4992930;28;19913;-78
2022/02/14 01:44:42;;;;;;;;;;;0.20;99.90;;;;;;4992865;28;19914;-79
2022/02/14 01:47:34;;;;;;;;;;;0.20;99.90;;;;;;4991345;28;19917;-78
2022/02/14 01:50:00;;;;;;;;;;;0.10;99.90;;;;;;4988789;28;19914;-78
2022/02/14 01:52:28;;;;;;;;;;;0.10;99.90;;;;;;4991691;28;20442;-77
2022/02/14 01:54:54;;;;;;;;;;;0.00;99.90;;;;;;4992733;28;20295;-77
2022/02/14 01:57:19;;;;;;;;;;;0.00;99.90;;;;;;4991701;28;19918;-79
2022/02/14 01:59:46;;;;;;;;;;;0.00;99.90;;;;;;4990339;28;20038;-78
2022/02/14 02:02:12;;;;;;;;;;;0.00;99.90;;;;;;4990574;28;20395;-79
2022/02/14 02:04:40;;;;;;;;;;;-0.10;99.90;;;;;;4992752;28;20008;-78
2022/02/14 02:07:07;;;;;;;;;;;-0.10;99.90;;;;;;4997785;28;20296;-78
2022/02/14 02:09:33;;;;;;;;;;;-0.10;99.90;;;;;;4991311;28;19961;-78
2022/02/14 02:14:42;;;;;;;;;;;-0.10;99.90;;;;;;4991628;28;20016;-78
2022/02/14 02:17:08;;;;;;;;;;;-0.10;99.90;;;;;;4993871;28;19960;-79
2022/02/14 02:19:34;;;;;;;;;;;-0.10;99.90;;;;;;4991557;28;19928;-78
2022/02/14 02:22:00;;;;;;;;;;;-0.10;99.90;;;;;;5007526;28;19921;-78
2022/02/14 02:24:26;;;;;;;;;;;0.00;99.90;;;;;;5007646;28;19918;-78
2022/02/14 02:27:02;;;;;;;;;;;0.00;99.90;;;;;;4990806;28;19914;-77
2022/02/14 02:29:28;;;;;;;;;;;0.00;99.90;;;;;;4988064;28;19918;-78
2022/02/14 02:31:54;;;;;;;;;;;-0.10;99.90;;;;;;4991990;28;20323;-78
2022/02/14 02:34:20;;;;;;;;;;;0.00;99.90;;;;;;4991057;28;19921;-78
2022/02/14 02:36:53;;;;;;;;;;;0.00;99.90;;;;;;4991333;28;19913;-78
2022/02/14 02:39:20;;;;;;;;;;;0.00;99.90;;;;;;4991369;28;19926;-78
2022/02/14 02:41:45;;;;;;;;;;;0.00;99.90;;;;;;4990829;28;19937;-78
2022/02/14 02:44:12;;;;;;;;;;;0.00;99.90;;;;;;4992113;28;20385;-80
2022/02/14 02:46:38;;;;;;;;;;;0.00;99.90;;;;;;5023194;28;19965;-78
2022/02/14 02:49:12;;;;;;;;;;;0.00;99.90;;;;;;5022366;28;19922;-78
2022/02/14 02:51:46;;;;;;;;;;;0.00;99.90;;;;;;4987213;28;19950;-78
2022/02/14 02:54:12;;;;;;;;;;;0.10;99.90;;;;;;4992582;28;20008;-78
2022/02/14 02:56:39;;;;;;;;;;;0.10;99.90;;;;;;4990472;28;20036;-78
2022/02/14 02:59:05;;;;;;;;;;;0.10;99.90;;;;;;4990503;28;20002;-78
2022/02/14 03:01:31;;;;;;;;;;;0.00;99.90;;;;;;4992018;28;19918;-77
2022/02/14 03:03:57;;;;;;;;;;;0.10;99.90;;;;;;4991875;28;19914;-78
2022/02/14 03:06:23;;;;;;;;;;;0.10;99.90;;;;;;4994276;28;20372;-77
2022/02/14 03:08:49;;;;;;;;;;;0.10;99.90;;;;;;5027133;28;19918;-78
2022/02/14 03:11:15;;;;;;;;;;;0.10;99.90;;;;;;4995729;28;19914;-78
2022/02/14 03:13:41;;;;;;;;;;;0.10;99.90;;;;;;4995735;28;19914;-77
2022/02/14 03:16:07;;;;;;;;;;;0.10;99.90;;;;;;5010547;28;19925;-78
2022/02/14 03:18:32;;;;;;;;;;;0.10;99.90;;;;;;4994678;28;20296;-78
2022/02/14 03:20:58;;;;;;;;;;;0.10;99.90;;;;;;4995283;28;19988;-80
2022/02/14 03:23:23;;;;;;;;;;;0.10;99.90;;;;;;4994291;28;20408;-78
2022/02/14 03:25:49;;;;;;;;;;;0.20;99.90;;;;;;4995024;28;19921;-78
2022/02/14 03:28:15;;;;;;;;;;;0.20;99.90;;;;;;4995037;28;20407;-78
2022/02/14 03:30:40;;;;;;;;;;;0.20;99.90;;;;;;4994055;28;19955;-79
2022/02/14 03:33:06;;;;;;;;;;;0.20;99.90;;;;;;4995158;28;19921;-78
2022/02/14 03:35:31;;;;;;;;;;;0.30;99.90;;;;;;4989893;28;19929;-78
2022/02/14 03:37:59;;;;;;;;;;;0.30;99.90;;;;;;5009140;28;19965;-78
2022/02/14 03:40:25;;;;;;;;;;;0.30;99.90;;;;;;4995101;28;19925;-79
2022/02/14 03:42:51;;;;;;;;;;;0.20;99.90;;;;;;4995239;28;19914;-79
2022/02/14 03:45:16;;;;;;;;;;;0.30;99.90;;;;;;4994992;28;19920;-78
2022/02/14 03:47:42;;;;;;;;;;;0.30;99.90;;;;;;5009411;28;19925;-77
2022/02/14 03:50:08;;;;;;;;;;;0.30;99.90;;;;;;4993894;28;19918;-78
2022/02/14 03:52:33;;;;;;;;;;;0.30;99.90;;;;;;4994908;28;20288;-78
2022/02/14 03:54:59;;;;;;;;;;;0.30;99.90;;;;;;4994892;28;20616;-78
2022/02/14 03:57:24;;;;;;;;;;;0.30;99.90;;;;;;4993363;28;20008;-78
2022/02/14 03:59:50;;;;;;;;;;;0.30;99.90;;;;;;4994539;28;19921;-78
2022/02/14 04:02:16;;;;;;;;;;;0.40;99.90;;;;;;5026164;28;20403;-78
2022/02/14 04:04:41;;;;;;;;;;;0.40;99.90;;;;;;5009606;28;19941;-79
2022/02/14 04:07:07;;;;;;;;;;;0.40;99.90;;;;;;4992873;28;20507;-78
2022/02/14 04:09:32;;;;;;;;;;;0.40;99.90;;;;;;4994669;28;19917;-78
2022/02/14 04:11:58;;;;;;;;;;;0.50;99.90;;;;;;4994073;28;19921;-78
2022/02/14 04:14:23;;;;;;;;;;;0.50;99.90;;;;;;4994289;28;19924;-78
2022/02/14 04:16:49;;;;;;;;;;;0.50;99.90;;;;;;4992652;28;19976;-78
2022/02/14 04:19:15;;;;;;;;;;;0.50;99.90;;;;;;4993802;28;20016;-78
2022/02/14 04:21:40;;;;;;;;;;;0.60;99.90;;;;;;4994474;28;19964;-78
2022/02/14 04:24:06;;;;;;;;;;;0.60;99.90;;;;;;4994378;28;20037;-78
2022/02/14 04:26:32;;;;;;;;;;;0.60;99.90;;;;;;4994056;28;19914;-78
2022/02/14 04:28:57;;;;;;;;;;;0.60;99.90;;;;;;4974530;28;20000;-77
2022/02/14 04:31:23;;;;;;;;;;;0.60;99.90;;;;;;4974868;28;20009;-78
2022/02/14 04:33:48;;;;;;;;;;;0.70;99.90;;;;;;4977066;28;20315;-79
2022/02/14 04:36:14;;;;;;;;;;;0.70;99.90;;;;;;4990941;28;19925;-78
2022/02/14 04:38:40;;;;;;;;;;;0.70;99.90;;;;;;4993686;28;20017;-77
2022/02/14 04:41:05;;;;;;;;;;;0.70;99.90;;;;;;4994092;28;20399;-78
2022/02/14 04:43:31;;;;;;;;;;;0.80;99.90;;;;;;4998346;28;19918;-78
2022/02/14 04:45:57;;;;;;;;;;;0.80;99.90;;;;;;4987299;28;20300;-78
2022/02/14 04:48:23;;;;;;;;;;;0.70;99.90;;;;;;4993570;28;20316;-78
2022/02/14 04:50:49;;;;;;;;;;;0.80;99.90;;;;;;4993488;28;20008;-78
2022/02/14 04:53:14;;;;;;;;;;;0.80;99.90;;;;;;4993987;28;20361;-78
2022/02/14 04:55:40;;;;;;;;;;;0.80;99.90;;;;;;4979140;28;20013;-78
2022/02/14 04:58:05;;;;;;;;;;;0.80;99.90;;;;;;4986075;28;19925;-78
2022/02/14 05:00:31;;;;;;;;;;;0.80;99.90;;;;;;4996007;28;20287;-78
2022/02/14 05:02:57;;;;;;;;;;;0.80;99.90;;;;;;4993755;28;20566;-78
2022/02/14 05:05:23;;;;;;;;;;;0.80;99.90;;;;;;4993070;28;19914;-78
2022/02/14 05:07:50;;;;;;;;;;;0.80;99.90;;;;;;5024781;28;19920;-77
2022/02/14 05:10:16;;;;;;;;;;;0.80;99.90;;;;;;4993206;28;19940;-80
2022/02/14 05:12:42;;;;;;;;;;;0.80;99.90;;;;;;4992437;28;19913;-78
2022/02/14 05:15:07;;;;;;;;;;;0.90;99.90;;;;;;4992888;28;19925;-78
2022/02/14 05:17:33;;;;;;;;;;;0.80;99.90;;;;;;4992637;28;19940;-78
2022/02/14 05:19:59;;;;;;;;;;;0.90;99.90;;;;;;4993503;28;19952;-78
2022/02/14 05:22:24;;;;;;;;;;;0.90;99.90;;;;;;4990847;28;19960;-78
2022/02/14 05:24:50;;;;;;;;;;;0.90;99.90;;;;;;4975237;28;19914;-78
2022/02/14 05:27:16;;;;;;;;;;;0.90;99.90;;;;;;5007734;28;20431;-78
2022/02/14 05:29:42;;;;;;;;;;;0.90;99.90;;;;;;5002913;28;20336;-78
2022/02/14 05:32:07;;;;;;;;;;;0.90;99.90;;;;;;4988645;28;19914;-78
2022/02/14 05:34:33;;;;;;;;;;;0.90;99.90;;;;;;4983845;28;20056;-78
2022/02/14 05:36:59;;;;;;;;;;;1.00;99.90;;;;;;4990242;28;19928;-78
2022/02/14 05:39:24;;;;;;;;;;;0.90;99.90;;;;;;4992742;28;20015;-78
2022/02/14 05:41:50;;;;;;;;;;;0.90;99.90;;;;;;5024683;28;19924;-78
2022/02/14 05:44:15;;;;;;;;;;;1.00;99.90;;;;;;4993126;28;19917;-78
2022/02/14 05:46:41;;;;;;;;;;;1.00;99.90;;;;;;5007510;28;19924;-78
2022/02/14 05:49:06;;;;;;;;;;;1.00;99.90;;;;;;4990971;28;20384;-78
2022/02/14 05:51:32;;;;;;;;;;;1.00;99.90;;;;;;4992937;28;19957;-78
2022/02/14 05:53:58;;;;;;;;;;;1.00;99.90;;;;;;4992890;28;19925;-78
2022/02/14 05:56:23;;;;;;;;;;;1.00;99.90;;;;;;4992997;28;19917;-78
2022/02/14 05:58:49;;;;;;;;;;;1.00;99.90;;;;;;4990350;28;19991;-78
2022/02/14 06:01:14;;;;;;;;;;;1.00;99.90;;;;;;4992635;28;19918;-78
2022/02/14 06:03:40;;;;;;;;;;;1.10;99.90;;;;;;5000860;28;19918;-78
2022/02/14 06:06:06;;;;;;;;;;;1.10;99.90;;;;;;4991842;28;20008;-79
2022/02/14 06:08:31;;;;;;;;;;;1.10;99.90;;;;;;4992311;28;20367;-78
2022/02/14 06:10:57;;;;;;;;;;;1.10;99.90;;;;;;5007925;28;20013;-78
2022/02/14 06:13:22;;;;;;;;;;;1.10;99.90;;;;;;4991709;28;19914;-78
2022/02/14 06:15:48;;;;;;;;;;;1.10;99.90;;;;;;5014733;28;19926;-79
2022/02/14 06:18:14;;;;;;;;;;;1.10;99.90;;;;;;5005863;28;19929;-79
2022/02/14 06:20:40;;;;;;;;;;;1.10;99.90;;;;;;5002682;28;20336;-79
2022/02/14 06:23:06;;;;;;;;;;;1.10;99.90;;;;;;4992857;28;19922;-79
2022/02/14 06:25:31;;;;;;;;;;;1.10;99.90;;;;;;4991844;28;19914;-79
2022/02/14 06:27:57;;;;;;;;;;;1.10;99.90;;;;;;5000725;28;19918;-79
2022/02/14 06:30:23;;;;;;;;;;;1.10;99.90;;;;;;4996646;28;19917;-79
2022/02/14 06:32:48;;;;;;;;;;;1.10;99.90;;;;;;4991635;28;20368;-79
2022/02/14 06:35:14;;;;;;;;;;;1.10;99.90;;;;;;4992893;28;20009;-79
2022/02/14 06:37:43;;;;;;;;;;;1.10;99.90;;;;;;4990247;28;19940;-79
2022/02/14 06:40:10;;;;;;;;;;;1.10;99.90;;;;;;4992809;28;19922;-79
2022/02/14 06:42:35;;;;;;;;;;;1.10;99.90;;;;;;4996888;28;20435;-79
2022/02/14 06:45:01;;;;;;;;;;;1.00;99.90;;;;;;4996604;28;19953;-79
2022/02/14 06:47:26;;;;;;;;;;;1.00;99.90;;;;;;4996202;28;19922;-79
2022/02/14 06:49:53;;;;;;;;;;;1.00;99.90;;;;;;4994459;28;19913;-79
2022/02/14 06:52:19;;;;;;;;;;;1.10;99.90;;;;;;4996212;28;19922;-79
2022/02/14 06:54:44;;;;;;;;;;;1.10;99.90;;;;;;5001043;28;20376;-79
2022/02/14 06:57:10;;;;;;;;;;;1.10;99.90;;;;;;4994024;28;19918;-79
2022/02/14 06:59:35;;;;;;;;;;;1.10;99.90;;;;;;5011173;28;19929;-79
2022/02/14 07:02:01;;;;;;;;;;;1.10;99.90;;;;;;4998561;28;19918;-79
2022/02/14 07:04:27;;;;;;;;;;;1.10;99.90;;;;;;5006040;28;19913;-79
2022/02/14 07:06:53;;;;;;;;;;;1.20;99.90;;;;;;4996231;28;20011;-79
2022/02/14 07:09:19;;;;;;;;;;;1.20;99.90;;;;;;4979819;28;19972;-79
2022/02/14 07:11:45;;;;;;;;;;;1.20;99.90;;;;;;4996515;28;19919;-79
2022/02/14 07:14:11;;;;;;;;;;;1.20;99.90;;;;;;4993965;28;19922;-79
2022/02/14 07:16:38;;;;;;;;;;;1.20;99.90;;;;;;5009641;28;19928;-79
2022/02/14 07:19:03;;;;;;;;;;;1.30;99.90;;;;;;4994989;28;19917;-79
2022/02/14 07:21:29;;;;;;;;;;;1.30;99.90;;;;;;4999389;28;19924;-78
2022/02/14 07:23:54;;;;;;;;;;;1.30;99.90;;;;;;4995891;28;19988;-79
2022/02/14 07:26:20;;;;;;;;;;;1.40;99.90;;;;;;5005903;28;19921;-79
2022/02/14 07:28:47;;;;;;;;;;;1.40;99.90;;;;;;4997995;28;19914;-78
2022/02/14 07:31:13;;;;;;;;;;;1.40;99.90;;;;;;4997903;28;20331;-79
2022/02/14 07:33:39;;;;;;;;;;;1.40;99.90;;;;;;4996894;28;19933;-79
2022/02/14 07:36:07;;;;;;;;;;;1.40;99.90;;;;;;4994581;28;19918;-79
2022/02/14 07:38:32;;;;;;;;;;;1.40;99.90;;;;;;4997212;28;19922;-78
2022/02/14 07:40:58;;;;;;;;;;;1.50;99.90;;;;;;4977132;28;19980;-79
2022/02/14 07:43:23;;;;;;;;;;;1.50;99.90;;;;;;4993456;28;19917;-79
2022/02/14 07:45:49;;;;;;;;;;;1.50;99.90;;;;;;4985455;28;19926;-79
2022/02/14 07:48:15;;;;;;;;;;;1.50;99.90;;;;;;4989376;28;19918;-79
2022/02/14 07:50:40;;;;;;;;;;;1.50;99.90;;;;;;4994024;28;19920;-79
2022/02/14 07:53:09;;;;;;;;;;;1.60;99.90;;;;;;4995400;28;19973;-79
2022/02/14 07:55:35;;;;;;;;;;;1.60;99.90;;;;;;4995584;28;19980;-80
2022/02/14 07:58:01;;;;;;;;;;;1.60;99.90;;;;;;4974043;28;19961;-80
2022/02/14 08:00:26;;;;;;;;;;;1.60;99.90;;;;;;4992645;28;19914;-80
2022/02/14 08:02:52;;;;;;;;;;;1.60;99.90;;;;;;4995052;28;20427;-79
2022/02/14 08:05:18;;;;;;;;;;;1.70;99.90;;;;;;5007771;28;19918;-80
2022/02/14 08:07:43;;;;;;;;;;;1.80;99.90;;;;;;4992434;28;19924;-79
2022/02/14 08:10:09;;;;;;;;;;;1.90;99.90;;;;;;4976782;28;20694;-79
2022/02/14 08:12:35;;;;;;;;;;;1.90;99.90;;;;;;4993118;28;19949;-79
2022/02/14 08:15:01;;;;;;;;;;;2.00;99.90;;;;;;4991474;28;19979;-79
2022/02/14 08:17:27;;;;;;;;;;;2.10;99.90;;;;;;4993847;28;20257;-80
2022/02/14 08:19:53;;;;;;;;;;;2.20;99.90;;;;;;4995664;28;20009;-80
2022/02/14 08:22:18;;;;;;;;;;;2.30;99.90;;;;;;4994390;28;19922;-80
2022/02/14 08:24:44;;;;;;;;;;;2.40;99.90;;;;;;4992681;28;19963;-82
2022/02/14 08:27:11;;;;;;;;;;;2.50;99.90;;;;;;4996489;28;19921;-81
2022/02/14 08:29:39;;;;;;;;;;;2.50;99.90;;;;;;4986592;28;20549;-80
2022/02/14 08:32:04;;;;;;;;;;;2.70;99.90;;;;;;4990069;28;19914;-80
2022/02/14 08:34:31;;;;;;;;;;;2.70;99.90;;;;;;4994713;28;19925;-82
2022/02/14 08:36:56;;;;;;;;;;;2.80;99.90;;;;;;4991737;28;20304;-80
2022/02/14 08:39:22;;;;;;;;;;;2.90;99.90;;;;;;4997081;28;20009;-81
2022/02/14 08:41:47;;;;;;;;;;;2.90;99.90;;;;;;4994903;28;19921;-79
2022/02/14 08:44:13;;;;;;;;;;;3.00;99.90;;;;;;4986367;28;19947;-79
2022/02/14 08:46:39;;;;;;;;;;;3.10;99.90;;;;;;5016272;28;20351;-79
2022/02/14 08:49:05;;;;;;;;;;;3.20;99.90;;;;;;5003710;28;20015;-80
2022/02/14 08:51:30;;;;;;;;;;;3.20;99.90;;;;;;4970164;28;19953;-80
2022/02/14 08:53:58;;;;;;;;;;;3.30;99.90;;;;;;5001883;28;19917;-80
2022/02/14 08:56:24;;;;;;;;;;;3.30;99.90;;;;;;4984220;28;19957;-80
2022/02/14 08:58:49;;;;;;;;;;;3.40;99.90;;;;;;4982387;28;20004;-80
2022/02/14 09:01:18;;;;;;;;;;;3.40;99.90;;;;;;4988136;28;20292;-80
2022/02/14 09:03:44;;;;;;;;;;;3.50;99.90;;;;;;4988222;28;19914;-80
2022/02/14 09:06:10;;;;;;;;;;;3.60;99.90;;;;;;4983792;28;19965;-81
2022/02/14 09:08:36;;;;;;;;;;;3.70;99.90;;;;;;4983078;28;19941;-79
2022/02/14 09:11:03;;;;;;;;;;;3.80;99.90;;;;;;4988552;28;19952;-80
2022/02/14 09:13:31;;;;;;;;;;;4.00;99.90;;;;;;5004616;28;19914;-80
2022/02/14 09:15:57;;;;;;;;;;;4.10;99.90;;;;;;4988208;28;20016;-80
2022/02/14 09:18:22;;;;;;;;;;;4.10;99.90;;;;;;4984636;28;20013;-80
2022/02/14 09:20:48;;;;;;;;;;;4.30;99.90;;;;;;4987842;28;19918;-80
2022/02/14 09:23:14;;;;;;;;;;;4.30;99.90;;;;;;4987733;28;19922;-81
2022/02/14 09:25:40;;;;;;;;;;;4.40;99.90;;;;;;4987600;28;19917;-81
2022/02/14 09:28:06;;;;;;;;;;;4.50;99.90;;;;;;5003619;28;19926;-80
2022/02/14 09:30:31;;;;;;;;;;;4.60;99.90;;;;;;4992963;28;19921;-80
2022/02/14 09:32:57;;;;;;;;;;;4.60;99.90;;;;;;4990447;28;19913;-81
2022/02/14 09:35:26;;;;;;;;;;;4.70;99.90;;;;;;4987546;28;19913;-79
2022/02/14 09:37:55;;;;;;;;;;;4.80;99.90;;;;;;4985545;28;19918;-80
2022/02/14 09:40:22;;;;;;;;;;;4.90;99.90;;;;;;4986248;28;19922;-81
2022/02/14 09:42:48;;;;;;;;;;;5.00;99.90;;;;;;4984995;28;20443;-80
2022/02/14 09:45:14;;;;;;;;;;;5.10;99.90;;;;;;4987355;28;19922;-80
2022/02/14 09:47:41;;;;;;;;;;;5.10;99.90;;;;;;4986580;28;19914;-80
2022/02/14 09:50:09;;;;;;;;;;;5.20;99.90;;;;;;4987490;28;20435;-80
2022/02/14 09:52:36;;;;;;;;;;;5.20;99.90;;;;;;4980151;28;19914;-82
2022/02/14 09:55:04;;;;;;;;;;;5.40;99.90;;;;;;4980943;28;19924;-80
2022/02/14 09:57:30;;;;;;;;;;;5.40;99.90;;;;;;4991335;28;19918;-81
2022/02/14 09:59:55;;;;;;;;;;;5.50;99.90;;;;;;4960696;28;19922;-80
2022/02/14 10:02:24;;;;;;;;;;;5.60;99.90;;;;;;4986411;28;19945;-81
2022/02/14 10:05:00;;;;;;;;;;;5.60;99.90;;;;;;4994459;28;19921;-81
2022/02/14 10:07:36;;;;;;;;;;;5.60;99.90;;;;;;5005003;28;19973;-81
2022/02/14 10:10:16;;;;;;;;;;;5.70;99.90;;;;;;4989754;28;19921;-81
2022/02/14 10:12:44;;;;;;;;;;;5.90;99.90;;;;;;4993812;28;19945;-80
2022/02/14 10:15:10;;;;;;;;;;;6.00;99.90;;;;;;4992279;28;20383;-79
2022/02/14 10:17:37;;;;;;;;;;;6.00;99.90;;;;;;4993162;28;19918;-81
2022/02/14 10:20:03;;;;;;;;;;;5.90;99.90;;;;;;5002561;28;19929;-81
2022/02/14 10:22:29;;;;;;;;;;;5.90;99.90;;;;;;4994116;28;19922;-81
2022/02/14 10:24:55;;;;;;;;;;;5.90;99.90;;;;;;4993349;28;19925;-81
2022/02/14 10:27:33;;;;;;;;;;;5.90;99.90;;;;;;4992740;28;19958;-82
2022/02/14 10:30:11;;;;;;;;;;;6.00;99.90;;;;;;5003015;28;20292;-81
2022/02/14 10:32:53;;;;;;;;;;;6.10;99.90;;;;;;5013812;28;19960;-80
2022/02/14 10:35:19;;;;;;;;;;;6.20;99.90;;;;;;5009418;28;19920;-79
2022/02/14 10:37:45;;;;;;;;;;;6.40;99.90;;;;;;4991160;28;19916;-80
2022/02/14 10:40:25;;;;;;;;;;;6.30;99.90;;;;;;4991639;28;19918;-80
2022/02/14 10:42:51;;;;;;;;;;;6.40;99.90;;;;;;5006354;28;19926;-82
2022/02/14 10:45:20;;;;;;;;;;;6.40;99.30;;;;;;4989911;28;19926;-81
2022/02/14 10:47:50;;;;;;;;;;;6.30;99.60;;;;;;4989073;28;20004;-80
2022/02/14 10:50:17;;;;;;;;;;;6.40;99.50;;;;;;5019816;28;19925;-79
2022/02/14 10:52:43;;;;;;;;;;;6.30;99.20;;;;;;5019467;28;20021;-79
2022/02/14 10:55:10;;;;;;;;;;;6.20;99.70;;;;;;4975145;28;19964;-80
2022/02/14 10:57:37;;;;;;;;;;;6.30;99.90;;;;;;4992974;28;19953;-81
2022/02/14 11:00:10;;;;;;;;;;;6.30;99.80;;;;;;5007074;28;20335;-80
2022/02/14 11:02:37;;;;;;;;;;;6.30;99.90;;;;;;4987601;28;20068;-82
2022/02/14 11:05:02;;;;;;;;;;;6.30;99.90;;;;;;5003507;28;19965;-80
2022/02/14 11:07:29;;;;;;;;;;;6.40;99.90;;;;;;4989334;28;20395;-81
2022/02/14 11:09:55;;;;;;;;;;;6.40;98.60;;;;;;5005006;28;20373;-81
2022/02/14 11:12:21;;;;;;;;;;;6.40;99.40;;;;;;4989655;28;19914;-79
2022/02/14 11:14:55;;;;;;;;;;;6.40;98.50;;;;;;5021466;28;19943;-81
2022/02/14 11:17:25;;;;;;;;;;;6.40;98.20;;;;;;4986904;28;19917;-81
2022/02/14 11:19:55;;;;;;;;;;;6.40;99.80;;;;;;4995730;28;19968;-80
2022/02/14 11:22:29;;;;;;;;;;;6.30;99.40;;;;;;4980493;28;19964;-79
2022/02/14 11:24:59;;;;;;;;;;;6.30;99.50;;;;;;4984767;28;20316;-79
2022/02/14 11:27:27;;;;;;;;;;;6.30;99.90;;;;;;5002900;28;19917;-80
2022/02/14 11:29:55;;;;;;;;;;;6.40;99.90;;;;;;5006038;28;19926;-79
2022/02/14 11:32:25;;;;;;;;;;;6.40;99.90;;;;;;4985167;28;19914;-80
2022/02/14 11:34:50;;;;;;;;;;;6.50;99.90;;;;;;4984873;28;20273;-78
2022/02/14 11:37:16;;;;;;;;;;;6.50;99.90;;;;;;4985148;28;19920;-80
2022/02/14 11:39:42;;;;;;;;;;;6.60;99.90;;;;;;5003883;28;19926;-80
2022/02/14 11:42:08;;;;;;;;;;;6.60;99.50;;;;;;4986793;28;19973;-80
2022/02/14 11:44:33;;;;;;;;;;;6.70;99.90;;;;;;4989653;28;19918;-81
2022/02/14 11:46:59;;;;;;;;;;;6.80;99.20;;;;;;5004968;28;19988;-79
2022/02/14 11:49:39;;;;;;;;;;;6.90;97.70;;;;;;5004462;28;19921;-80
2022/02/14 11:52:06;;;;;;;;;;;6.80;96.60;;;;;;4991994;28;19936;-81
2022/02/14 11:54:40;;;;;;;;;;;6.90;96.40;;;;;;4989091;28;19921;-80
2022/02/14 11:57:28;;;;;;;;;;;6.90;98.20;;;;;;4986896;28;19929;-80
2022/02/14 12:00:18;;;;;;;;;;;7.00;96.10;;;;;;4993813;28;19917;-79
2022/02/14 12:03:02;;;;;;;;;;;7.10;97.60;;;;;;4990549;28;19914;-81
2022/02/14 12:05:38;;;;;;;;;;;7.20;96.50;;;;;;4987415;28;19940;-80
2022/02/14 12:08:03;;;;;;;;;;;7.20;96.30;;;;;;4977569;28;19918;-82
2022/02/14 12:10:31;;;;;;;;;;;7.30;95.00;;;;;;4988523;28;19910;-78
2022/02/14 12:13:01;;;;;;;;;;;7.30;95.60;;;;;;4990868;28;20347;-81
2022/02/14 12:20:47;;;;;;;;;;;7.20;95.20;;;;;;4988129;28;19921;-79
2022/02/14 12:23:13;;;;;;;;;;;7.20;95.80;;;;;;4991030;28;19914;-80
2022/02/14 12:25:48;;;;;;;;;;;7.20;96.00;;;;;;5005825;28;19925;-80
2022/02/14 12:28:14;;;;;;;;;;;7.30;96.00;;;;;;5003599;28;19918;-80
2022/02/14 12:30:43;;;;;;;;;;;7.40;96.10;;;;;;5007325;28;20006;-81
2022/02/14 12:33:10;;;;;;;;;;;7.40;95.60;;;;;;4987772;28;19914;-81
2022/02/14 12:35:37;;;;;;;;;;;7.50;96.40;;;;;;4986629;28;19921;-79
2022/02/14 12:38:03;;;;;;;;;;;7.50;96.60;;;;;;5015506;28;19914;-80
2022/02/14 12:40:45;;;;;;;;;;;7.60;97.20;;;;;;4992408;28;19922;-81
2022/02/14 12:43:10;;;;;;;;;;;7.60;97.00;;;;;;5007786;28;19921;-80
2022/02/14 12:45:36;;;;;;;;;;;7.60;97.00;;;;;;5022904;28;20057;-81
2022/02/14 12:48:02;;;;;;;;;;;7.60;97.60;;;;;;4992606;28;19914;-81
2022/02/14 12:50:37;;;;;;;;;;;7.60;96.30;;;;;;5009219;28;19924;-80
2022/02/14 12:53:09;;;;;;;;;;;7.60;95.90;;;;;;5002783;28;20480;-80
2022/02/14 12:55:34;;;;;;;;;;;7.60;97.00;;;;;;4998091;28;19924;-80
2022/02/14 12:58:00;;;;;;;;;;;7.70;96.40;;;;;;5019120;23;19926;-80
2022/02/14 13:00:26;;;;;;;;;;;7.70;97.30;;;;;;5017295;28;19965;-80
2022/02/14 13:02:56;;;;;;;;;;;7.70;97.70;;;;;;5015322;28;20003;-80
2022/02/14 13:05:21;;;;;;;;;;;7.70;96.90;;;;;;5025692;28;19918;-79
2022/02/14 13:07:47;;;;;;;;;;;7.70;97.00;;;;;;5010042;28;19944;-78
2022/02/14 13:10:13;;;;;;;;;;;7.80;97.90;;;;;;5012357;28;19952;-80
2022/02/14 13:12:39;;;;;;;;;;;7.70;97.50;;;;;;5027469;28;19980;-80
2022/02/14 13:15:06;;;;;;;;;;;7.80;97.60;;;;;;5006425;28;19921;-79
2022/02/14 13:17:32;;;;;;;;;;;7.80;97.90;;;;;;5009148;28;19945;-79
2022/02/14 13:19:59;;;;;;;;;;;7.80;97.80;;;;;;5013117;28;19925;-78
2022/02/14 13:22:30;;;;;;;;;;;7.80;97.90;;;;;;5015846;28;19981;-80
2022/02/14 13:24:58;;;;;;;;;;;7.80;97.90;;;;;;5029808;28;19914;-80
2022/02/14 13:27:23;;;;;;;;;;;7.90;97.00;;;;;;5015698;28;19914;-80
2022/02/14 13:29:50;;;;;;;;;;;7.90;96.50;;;;;;5011510;28;19976;-80
2022/02/14 13:32:17;;;;;;;;;;;7.90;95.60;;;;;;5011861;28;19913;-78
2022/02/14 13:35:01;;;;;;;;;;;7.90;94.50;;;;;;5011809;28;19924;-80
2022/02/14 13:37:27;;;;;;;;;;;7.90;95.20;;;;;;5005421;28;19922;-80
2022/02/14 13:39:53;;;;;;;;;;;7.80;95.10;;;;;;5017436;28;19947;-81
2022/02/14 13:42:19;;;;;;;;;;;7.80;95.70;;;;;;5012934;28;19925;-80
2022/02/14 13:44:55;;;;;;;;;;;7.80;96.10;;;;;;5010055;28;19925;-79
2022/02/14 13:47:20;;;;;;;;;;;7.80;97.30;;;;;;5011169;28;19930;-78
2022/02/14 13:49:46;;;;;;;;;;;7.70;96.20;;;;;;5013433;28;19918;-79
2022/02/14 13:52:25;;;;;;;;;;;7.70;96.70;;;;;;5011709;28;19922;-79
2022/02/14 13:55:05;;;;;;;;;;;7.70;97.30;;;;;;5034235;28;19964;-79
2022/02/14 13:57:31;;;;;;;;;;;7.70;96.90;;;;;;5008710;28;19953;-79
2022/02/14 13:59:57;;;;;;;;;;;7.70;97.10;;;;;;5013367;28;19932;-78
2022/02/14 14:02:24;;;;;;;;;;;7.70;97.90;;;;;;5010949;28;20384;-79
2022/02/14 14:04:51;;;;;;;;;;;7.70;97.70;;;;;;5018793;28;19914;-78
2022/02/14 14:07:19;;;;;;;;;;;7.70;99.00;;;;;;5014654;28;19949;-76
2022/02/14 14:09:49;;;;;;;;;;;7.70;99.60;;;;;;5017993;28;19917;-80
2022/02/14 14:12:15;;;;;;;;;;;7.70;98.80;;;;;;5014134;28;19920;-81
2022/02/14 14:14:42;;;;;;;;;;;7.70;98.70;;;;;;5015297;28;19971;-78
2022/02/14 14:17:09;;;;;;;;;;;7.70;99.00;;;;;;5008120;28;19921;-80
2022/02/14 14:19:46;;;;;;;;;;;7.70;98.20;;;;;;5011041;28;20334;-81
2022/02/14 14:22:12;;;;;;;;;;;7.80;98.50;;;;;;5021788;28;19917;-81
2022/02/14 14:24:37;;;;;;;;;;;7.80;98.90;;;;;;5006095;28;19944;-81
2022/02/14 14:27:03;;;;;;;;;;;7.80;99.20;;;;;;5010692;28;19921;-80
2022/02/14 14:29:28;;;;;;;;;;;7.80;98.60;;;;;;5013436;28;19922;-80
2022/02/14 14:31:54;;;;;;;;;;;7.80;99.40;;;;;;5010172;28;19924;-81
2022/02/14 14:34:20;;;;;;;;;;;7.90;99.30;;;;;;5007028;28;19917;-80